createdAt,value
2023-02-03T00:00:08.419Z,11.10
2023-02-03T00:02:38.975Z,11.00
2023-02-03T00:05:07.092Z,11.00
2023-02-03T00:07:36.144Z,10.90
2023-02-03T00:10:04.535Z,10.80
2023-02-03T00:12:32.595Z,10.80
2023-02-03T00:15:00.126Z,10.70
2023-02-03T00:17:27.575Z,10.60
2023-02-03T00:19:55.043Z,10.50
2023-02-03T00:22:22.505Z,10.50
2023-02-03T00:24:50.068Z,10.50
2023-02-03T00:27:17.556Z,10.40
2023-02-03T00:29:45.176Z,10.20
2023-02-03T00:32:12.815Z,10.10
2023-02-03T00:34:40.399Z,10.10
2023-02-03T00:37:07.914Z,10.00
2023-02-03T00:39:38.524Z,10.00
2023-02-03T00:42:06.645Z,9.90
2023-02-03T00:44:34.068Z,9.80
2023-02-03T00:47:01.636Z,9.80
2023-02-03T00:49:30.139Z,9.70
2023-02-03T00:51:57.721Z,9.70
2023-02-03T00:54:25.264Z,9.60
2023-02-03T00:56:53.086Z,9.50
2023-02-03T00:59:20.564Z,9.50
2023-02-03T01:01:49.968Z,9.40
2023-02-03T01:04:17.433Z,9.30
2023-02-03T01:06:44.951Z,9.30
2023-02-03T01:09:12.784Z,9.30
2023-02-03T01:11:40.804Z,9.20
2023-02-03T01:14:08.647Z,9.10
2023-02-03T01:16:38.286Z,9.10
2023-02-03T01:19:06.372Z,9.20
2023-02-03T01:21:33.922Z,9.10
2023-02-03T01:24:02.963Z,9.10
2023-02-03T01:26:31.908Z,9.10
2023-02-03T01:29:00.603Z,9.10
2023-02-03T01:31:32.746Z,9.10
2023-02-03T01:34:00.386Z,9.20
2023-02-03T01:36:30.293Z,9.20
2023-02-03T01:38:59.505Z,9.20
2023-02-03T01:41:30.737Z,9.20
2023-02-03T01:44:00.012Z,9.10
2023-02-03T01:46:46.829Z,9.10
2023-02-03T01:49:24.157Z,9.10
2023-02-03T01:51:53.538Z,9.10
2023-02-03T01:54:32.948Z,9.00
2023-02-03T01:57:06.573Z,8.90
2023-02-03T01:59:35.961Z,8.80
2023-02-03T02:02:06.707Z,8.70
2023-02-03T02:04:48.799Z,8.70
2023-02-03T02:07:17.872Z,8.70
2023-02-03T02:09:46.819Z,8.70
2023-02-03T02:12:15.608Z,8.80
2023-02-03T02:14:44.683Z,8.70
2023-02-03T02:17:47.484Z,8.70
2023-02-03T02:20:53.625Z,8.60
2023-02-03T02:23:58.542Z,8.50
2023-02-03T02:26:28.750Z,8.50
2023-02-03T02:28:56.432Z,8.50
2023-02-03T02:31:54.734Z,8.50
2023-02-03T02:34:49.101Z,8.50
2023-02-03T02:37:42.849Z,8.50
2023-02-03T02:40:29.046Z,8.50
2023-02-03T02:42:59.689Z,8.50
2023-02-03T02:45:39.250Z,8.50
2023-02-03T02:48:23.137Z,8.40
2023-02-03T02:50:56.078Z,8.30
2023-02-03T02:53:29.513Z,8.40
2023-02-03T02:55:58.688Z,8.40
2023-02-03T02:58:29.451Z,8.30
2023-02-03T03:00:57.043Z,8.30
2023-02-03T03:03:25.300Z,8.20
2023-02-03T03:06:07.128Z,8.20
2023-02-03T03:08:42.961Z,8.10
2023-02-03T03:11:11.775Z,8.10
2023-02-03T03:13:45.464Z,8.10
2023-02-03T03:16:15.267Z,8.10
2023-02-03T03:18:48.686Z,8.10
2023-02-03T03:21:24.184Z,8.10
2023-02-03T03:23:54.711Z,8.00
2023-02-03T03:26:40.576Z,8.00
2023-02-03T03:29:12.474Z,8.10
2023-02-03T03:31:43.791Z,8.10
2023-02-03T03:34:13.083Z,8.10
2023-02-03T03:36:47.832Z,8.10
2023-02-03T03:39:52.854Z,8.10
2023-02-03T03:42:48.405Z,8.00
2023-02-03T03:45:39.208Z,8.00
2023-02-03T03:48:24.632Z,7.90
2023-02-03T03:51:00.197Z,7.90
2023-02-03T03:53:30.588Z,7.90
2023-02-03T03:56:01.219Z,7.90
2023-02-03T03:58:31.275Z,7.90
2023-02-03T04:01:02.526Z,7.90
2023-02-03T04:03:46.650Z,7.90
2023-02-03T04:06:14.341Z,7.80
2023-02-03T04:08:41.803Z,7.80
2023-02-03T04:11:09.336Z,7.90
2023-02-03T04:13:36.835Z,7.80
2023-02-03T04:16:04.478Z,7.80
2023-02-03T04:18:32.109Z,7.70
2023-02-03T04:20:59.544Z,7.80
2023-02-03T04:23:27.003Z,7.70
2023-02-03T04:25:54.501Z,7.60
2023-02-03T04:28:21.922Z,7.60
2023-02-03T04:30:49.395Z,7.60
2023-02-03T04:33:16.846Z,7.60
2023-02-03T04:35:44.293Z,7.60
2023-02-03T04:38:11.710Z,7.60
2023-02-03T04:40:39.195Z,7.60
2023-02-03T04:43:07.918Z,7.60
2023-02-03T04:45:35.514Z,7.60
2023-02-03T04:48:04.675Z,7.60
2023-02-03T04:50:32.663Z,7.60
2023-02-03T04:53:00.609Z,7.60
2023-02-03T04:55:28.869Z,7.60
2023-02-03T04:58:00.344Z,7.70
2023-02-03T05:00:28.966Z,7.60
2023-02-03T05:02:56.656Z,7.70
2023-02-03T05:05:24.285Z,7.70
2023-02-03T05:07:51.679Z,7.70
2023-02-03T05:10:19.225Z,7.70
2023-02-03T05:12:46.796Z,7.60
2023-02-03T05:15:14.406Z,7.50
2023-02-03T05:17:41.807Z,7.50
2023-02-03T05:20:10.057Z,7.60
2023-02-03T05:22:38.666Z,7.60
2023-02-03T05:25:06.639Z,7.50
2023-02-03T05:27:34.203Z,7.50
2023-02-03T05:30:01.699Z,7.50
2023-02-03T05:32:29.168Z,7.50
2023-02-03T05:34:56.660Z,7.50
2023-02-03T05:37:24.150Z,7.50
2023-02-03T05:39:51.625Z,7.60
2023-02-03T05:42:19.055Z,7.50
2023-02-03T05:44:49.039Z,7.50
2023-02-03T05:47:16.510Z,7.50
2023-02-03T05:49:43.962Z,7.50
2023-02-03T05:52:11.418Z,7.50
2023-02-03T05:54:38.794Z,7.40
2023-02-03T05:57:06.347Z,7.40
2023-02-03T05:59:34.249Z,7.40
2023-02-03T06:02:01.686Z,7.40
2023-02-03T06:04:29.148Z,7.40
2023-02-03T06:06:56.687Z,7.30
2023-02-03T06:09:24.090Z,7.30
2023-02-03T06:11:52.109Z,7.30
2023-02-03T06:14:19.622Z,7.30
2023-02-03T06:16:47.093Z,7.30
2023-02-03T06:19:16.270Z,7.20
2023-02-03T06:21:43.991Z,7.30
2023-02-03T06:24:11.629Z,7.30
2023-02-03T06:26:39.568Z,7.30
2023-02-03T06:29:07.007Z,7.30
2023-02-03T06:31:35.712Z,7.20
2023-02-03T06:34:03.245Z,7.30
2023-02-03T06:36:30.772Z,7.20
2023-02-03T06:38:59.252Z,7.30
2023-02-03T06:41:30.613Z,7.30
2023-02-03T06:43:58.206Z,7.30
2023-02-03T06:46:29.837Z,7.20
2023-02-03T06:48:59.140Z,7.20
2023-02-03T06:51:26.687Z,7.20
2023-02-03T06:53:54.397Z,7.20
2023-02-03T06:56:21.897Z,7.30
2023-02-03T06:58:49.476Z,7.20
2023-02-03T07:01:16.912Z,7.30
2023-02-03T07:03:44.557Z,7.20
2023-02-03T07:06:12.010Z,7.20
2023-02-03T07:08:39.572Z,7.20
2023-02-03T07:11:07.160Z,7.20
2023-02-03T07:13:34.680Z,7.20
2023-02-03T07:16:02.356Z,7.20
2023-02-03T07:18:46.461Z,7.20
2023-02-03T07:21:17.376Z,7.20
2023-02-03T07:23:47.553Z,7.30
2023-02-03T07:26:15.449Z,7.20
2023-02-03T07:28:43.017Z,7.20
2023-02-03T07:31:10.778Z,7.20
2023-02-03T07:33:39.289Z,7.20
2023-02-03T07:36:08.085Z,7.20
2023-02-03T07:38:35.538Z,7.30
2023-02-03T07:41:03.030Z,7.30
2023-02-03T07:43:30.622Z,7.30
2023-02-03T07:45:58.143Z,7.30
2023-02-03T07:48:25.591Z,7.30
2023-02-03T07:50:53.125Z,7.30
2023-02-03T07:53:20.691Z,7.30
2023-02-03T07:55:48.307Z,7.30
2023-02-03T07:58:17.080Z,7.30
2023-02-03T08:00:44.816Z,7.30
2023-02-03T08:03:12.391Z,7.30
2023-02-03T08:05:40.079Z,7.30
2023-02-03T08:08:07.501Z,7.30
2023-02-03T08:10:35.237Z,7.30
2023-02-03T08:13:02.798Z,8.10
2023-02-03T08:15:30.319Z,7.30
2023-02-03T08:17:57.803Z,7.20
2023-02-03T08:20:25.479Z,7.20
2023-02-03T08:22:53.149Z,7.20
2023-02-03T08:25:22.535Z,7.20
2023-02-03T08:27:50.320Z,7.40
2023-02-03T08:30:17.845Z,7.30
2023-02-03T08:32:45.279Z,7.40
2023-02-03T08:35:13.761Z,7.40
2023-02-03T08:37:41.831Z,7.40
2023-02-03T08:40:09.998Z,7.40
2023-02-03T08:42:37.702Z,7.30
2023-02-03T08:45:05.767Z,7.30
2023-02-03T08:47:36.850Z,7.30
2023-02-03T08:50:06.647Z,7.30
2023-02-03T08:52:34.197Z,7.30
2023-02-03T08:55:01.617Z,7.30
2023-02-03T08:57:33.185Z,7.30
2023-02-03T09:00:00.725Z,7.30
2023-02-03T09:02:28.399Z,7.30
2023-02-03T09:04:56.358Z,7.30
2023-02-03T09:07:24.607Z,7.30
2023-02-03T09:09:52.351Z,7.20
2023-02-03T09:12:19.870Z,7.30
2023-02-03T09:14:47.311Z,7.30
2023-02-03T09:17:14.870Z,7.30
2023-02-03T09:19:42.308Z,7.30
2023-02-03T09:22:09.824Z,7.40
2023-02-03T09:24:37.490Z,7.40
2023-02-03T09:27:05.021Z,7.40
2023-02-03T09:29:32.550Z,7.40
2023-02-03T09:32:00.343Z,7.40
2023-02-03T09:34:28.053Z,7.40
2023-02-03T09:36:55.593Z,7.50
2023-02-03T09:39:23.022Z,7.50
2023-02-03T09:42:01.410Z,7.50
2023-02-03T09:44:48.310Z,7.60
2023-02-03T09:47:31.533Z,7.70
2023-02-03T09:50:02.707Z,7.70
2023-02-03T09:52:34.484Z,7.70
2023-02-03T09:55:21.935Z,7.70
2023-02-03T09:58:02.271Z,7.70
2023-02-03T10:00:41.417Z,7.80
2023-02-03T10:03:17.995Z,7.80
2023-02-03T10:05:54.229Z,7.90
2023-02-03T10:09:00.474Z,7.90
2023-02-03T10:11:52.474Z,8.00
2023-02-03T10:14:41.792Z,8.00
2023-02-03T10:17:37.856Z,8.00
2023-02-03T10:20:28.699Z,8.00
2023-02-03T10:23:06.968Z,8.00
2023-02-03T10:25:44.312Z,8.00
2023-02-03T10:28:22.329Z,8.10
2023-02-03T10:31:01.649Z,8.00
2023-02-03T10:33:31.713Z,8.10
2023-02-03T10:36:07.043Z,8.00
2023-02-03T10:38:39.493Z,8.10
2023-02-03T10:41:07.325Z,8.00
2023-02-03T10:43:47.713Z,8.00
2023-02-03T10:46:16.710Z,8.10
2023-02-03T10:48:44.510Z,8.10
2023-02-03T10:51:25.284Z,8.10
2023-02-03T10:53:53.716Z,8.10
2023-02-03T10:56:36.940Z,8.10
2023-02-03T10:59:06.572Z,8.20
2023-02-03T11:01:43.796Z,8.20
2023-02-03T11:04:33.041Z,8.20
2023-02-03T11:07:03.023Z,8.20
2023-02-03T11:09:39.857Z,8.20
2023-02-03T11:12:19.129Z,8.20
2023-02-03T11:14:46.691Z,8.20
2023-02-03T11:17:29.754Z,8.30
2023-02-03T11:20:16.295Z,8.30
2023-02-03T11:22:44.419Z,8.30
2023-02-03T11:25:27.694Z,8.30
2023-02-03T11:27:56.957Z,8.30
2023-02-03T11:30:28.272Z,8.40
2023-02-03T11:32:56.674Z,8.30
2023-02-03T11:35:29.585Z,8.40
2023-02-03T11:37:59.775Z,8.40
2023-02-03T11:40:34.095Z,8.40
2023-02-03T11:43:05.788Z,8.30
2023-02-03T11:45:45.807Z,8.30
2023-02-03T11:48:33.371Z,8.30
2023-02-03T11:51:28.778Z,8.30
2023-02-03T11:54:11.938Z,8.40
2023-02-03T11:56:57.538Z,8.30
2023-02-03T11:59:36.944Z,8.40
2023-02-03T12:02:26.271Z,8.40
2023-02-03T12:05:12.764Z,8.50
2023-02-03T12:07:46.548Z,8.40
2023-02-03T12:10:26.210Z,8.40
2023-02-03T12:13:00.127Z,8.40
2023-02-03T12:15:47.091Z,8.40
2023-02-03T12:18:20.531Z,8.40
2023-02-03T12:21:03.099Z,8.40
2023-02-03T12:23:39.605Z,8.30
2023-02-03T12:26:35.842Z,8.40
2023-02-03T12:29:15.942Z,8.30
2023-02-03T12:31:57.049Z,8.40
2023-02-03T12:34:30.230Z,8.40
2023-02-03T12:36:59.561Z,8.40
2023-02-03T12:40:11.063Z,8.40
2023-02-03T12:43:00.934Z,8.50
2023-02-03T12:45:32.106Z,8.60
2023-02-03T12:48:06.949Z,8.60
2023-02-03T12:50:50.772Z,8.70
2023-02-03T12:53:35.131Z,8.70
2023-02-03T12:56:18.428Z,8.70
2023-02-03T12:58:48.965Z,8.80
2023-02-03T13:01:31.613Z,8.80
2023-02-03T13:04:25.921Z,8.80
2023-02-03T13:07:11.284Z,8.80
2023-02-03T13:10:06.334Z,8.80
2023-02-03T13:12:47.559Z,8.80
2023-02-03T13:15:28.774Z,8.70
2023-02-03T13:18:03.011Z,8.70
2023-02-03T13:20:36.088Z,8.70
2023-02-03T13:23:12.606Z,8.70
2023-02-03T13:26:13.879Z,8.80
2023-02-03T13:29:22.965Z,8.80
2023-02-03T13:32:27.497Z,8.70
2023-02-03T13:35:04.782Z,8.70
2023-02-03T13:38:10.439Z,8.70
2023-02-03T13:40:48.922Z,8.70
2023-02-03T13:43:36.896Z,8.70
2023-02-03T13:46:09.527Z,8.70
2023-02-03T13:48:37.530Z,8.90
2023-02-03T13:51:17.663Z,8.80
2023-02-03T13:53:47.500Z,8.80
2023-02-03T13:56:25.857Z,8.90
2023-02-03T13:59:03.438Z,8.90
2023-02-03T14:01:38.671Z,8.90
2023-02-03T14:04:34.867Z,8.90
2023-02-03T14:07:04.313Z,8.90
2023-02-03T14:09:31.876Z,8.80
2023-02-03T14:12:20.069Z,8.80
2023-02-03T14:14:50.573Z,8.80
2023-02-03T14:17:36.128Z,8.90
2023-02-03T14:20:26.013Z,8.90
2023-02-03T14:23:05.714Z,8.90
2023-02-03T14:25:58.750Z,8.90
2023-02-03T14:28:46.690Z,9.00
2023-02-03T14:31:25.156Z,9.30
2023-02-03T14:33:59.850Z,9.10
2023-02-03T14:36:41.511Z,9.10
2023-02-03T14:39:17.968Z,9.10
2023-02-03T14:41:53.771Z,9.20
2023-02-03T14:44:26.965Z,9.20
2023-02-03T14:47:27.159Z,9.30
2023-02-03T14:50:19.514Z,9.20
2023-02-03T14:53:00.914Z,9.20
2023-02-03T14:55:52.763Z,9.30
2023-02-03T14:58:35.777Z,9.20
2023-02-03T15:01:08.307Z,9.20
2023-02-03T15:03:41.742Z,9.20
2023-02-03T15:06:40.216Z,9.30
2023-02-03T15:09:40.528Z,9.20
2023-02-03T15:12:26.040Z,9.20
2023-02-03T15:14:54.154Z,9.20
2023-02-03T15:17:31.073Z,9.20
2023-02-03T15:19:58.632Z,9.20
2023-02-03T15:22:28.870Z,9.20
2023-02-03T15:25:00.317Z,9.20
2023-02-03T15:27:30.426Z,9.10
2023-02-03T15:30:02.121Z,9.10
2023-02-03T15:32:36.602Z,9.10
2023-02-03T15:35:08.383Z,9.10
2023-02-03T15:37:45.369Z,9.10
2023-02-03T15:40:18.960Z,9.00
2023-02-03T15:43:01.501Z,9.00
2023-02-03T15:45:35.888Z,9.00
2023-02-03T15:48:17.644Z,9.00
2023-02-03T15:50:47.968Z,9.00
2023-02-03T15:53:27.652Z,9.00
2023-02-03T15:55:59.057Z,9.00
2023-02-03T15:58:30.159Z,8.90
2023-02-03T16:01:00.779Z,8.90
2023-02-03T16:03:38.539Z,8.90
2023-02-03T16:06:17.201Z,9.00
2023-02-03T16:08:46.842Z,8.90
2023-02-03T16:11:29.078Z,8.90
2023-02-03T16:13:59.890Z,8.90
2023-02-03T16:17:04.268Z,8.80
2023-02-03T16:19:38.150Z,8.80
2023-02-03T16:22:36.041Z,8.70
2023-02-03T16:25:20.272Z,8.70
2023-02-03T16:28:39.785Z,8.70
2023-02-03T16:31:37.422Z,8.60
2023-02-03T16:34:35.808Z,8.60
2023-02-03T16:37:31.953Z,8.60
2023-02-03T16:40:18.554Z,8.60
2023-02-03T16:43:04.588Z,8.60
2023-02-03T16:45:50.438Z,8.50
2023-02-03T16:48:36.325Z,8.60
2023-02-03T16:51:18.425Z,8.60
2023-02-03T16:53:48.345Z,8.50
2023-02-03T16:56:18.597Z,8.50
2023-02-03T16:58:46.169Z,8.50
2023-02-03T17:01:13.807Z,8.50
2023-02-03T17:03:41.381Z,8.50
2023-02-03T17:06:11.079Z,8.50
2023-02-03T17:08:39.989Z,8.50
2023-02-03T17:11:19.620Z,8.40
2023-02-03T17:13:48.296Z,8.40
2023-02-03T17:16:22.916Z,8.40
2023-02-03T17:18:50.975Z,8.30
2023-02-03T17:21:26.400Z,8.30
2023-02-03T17:23:54.403Z,8.20
2023-02-03T17:26:26.304Z,8.20
2023-02-03T17:28:53.727Z,8.20
2023-02-03T17:31:21.443Z,8.20
2023-02-03T17:33:52.766Z,8.20
2023-02-03T17:36:21.951Z,8.20
2023-02-03T17:55:25.011Z,8.00
2023-02-03T17:57:52.503Z,7.90
2023-02-03T18:00:20.233Z,7.80
2023-02-03T18:02:51.778Z,7.90
2023-02-03T18:05:19.242Z,7.80
2023-02-03T18:10:19.696Z,7.70
2023-02-03T18:12:47.162Z,7.60
2023-02-03T18:15:14.621Z,7.60
2023-02-03T18:17:42.039Z,7.60
2023-02-03T18:20:10.077Z,7.60
2023-02-03T18:22:37.813Z,7.60
2023-02-03T18:25:07.916Z,7.60
2023-02-03T18:27:35.953Z,7.60
2023-02-03T18:30:04.953Z,7.70
2023-02-03T18:32:32.483Z,7.70
2023-02-03T18:35:00.915Z,7.70
2023-02-03T18:37:28.506Z,7.70
2023-02-03T18:39:56.047Z,7.70
2023-02-03T18:42:23.948Z,7.60
2023-02-03T18:44:51.454Z,7.70
2023-02-03T18:47:18.980Z,7.70
2023-02-03T18:49:48.053Z,7.70
2023-02-03T18:52:15.521Z,7.70
2023-02-03T18:54:44.513Z,7.70
2023-02-03T18:57:15.197Z,7.80
2023-02-03T18:59:43.955Z,7.80
2023-02-03T19:02:11.968Z,7.80
2023-02-03T19:04:39.523Z,7.90
2023-02-03T19:07:07.668Z,7.90
2023-02-03T19:09:35.384Z,8.00
2023-02-03T19:12:05.267Z,8.00
2023-02-03T19:14:33.092Z,8.10
2023-02-03T19:17:00.762Z,8.00
2023-02-03T19:19:28.287Z,8.00
2023-02-03T19:21:55.716Z,8.10
2023-02-03T19:24:26.762Z,8.00
2023-02-03T19:26:54.842Z,8.10
2023-02-03T19:29:22.357Z,8.00
2023-02-03T19:31:50.005Z,8.00
2023-02-03T19:34:18.000Z,7.80
2023-02-03T19:36:47.081Z,7.80
2023-02-03T19:39:15.303Z,7.70
2023-02-03T19:41:43.934Z,7.50
2023-02-03T19:44:11.453Z,7.60
2023-02-03T19:46:39.040Z,7.60
2023-02-03T19:49:10.443Z,7.70
2023-02-03T19:51:38.264Z,7.70
2023-02-03T19:54:06.139Z,7.60
2023-02-03T19:56:34.001Z,7.60
2023-02-03T19:59:01.605Z,7.50
2023-02-03T20:01:29.522Z,7.50
2023-02-03T20:04:00.957Z,7.60
2023-02-03T20:06:29.133Z,7.40
2023-02-03T20:08:56.717Z,7.20
2023-02-03T20:11:24.237Z,7.30
2023-02-03T20:13:51.980Z,7.20
2023-02-03T20:16:19.873Z,7.00
2023-02-03T20:18:47.414Z,7.00
2023-02-03T20:21:14.870Z,7.00
2023-02-03T20:23:42.487Z,7.00
2023-02-03T20:26:10.035Z,7.20
2023-02-03T20:28:37.449Z,7.10
2023-02-03T20:31:05.575Z,6.90
2023-02-03T20:33:33.256Z,7.10
2023-02-03T20:36:00.816Z,6.90
2023-02-03T20:38:28.702Z,6.90
2023-02-03T20:40:56.316Z,6.70
2023-02-03T20:43:27.353Z,6.70
2023-02-03T20:45:55.832Z,6.80
2023-02-03T20:48:25.601Z,6.80
2023-02-03T20:50:53.309Z,6.80
2023-02-03T20:53:25.554Z,6.90
2023-02-03T20:55:57.820Z,6.80
2023-02-03T20:58:29.238Z,6.70
2023-02-03T21:00:57.739Z,6.80
2023-02-03T21:03:44.752Z,6.70
2023-02-03T21:06:18.232Z,6.80
2023-02-03T21:08:48.277Z,6.80
2023-02-03T21:11:20.756Z,6.90
2023-02-03T21:13:50.004Z,7.00
2023-02-03T21:16:28.381Z,7.20
2023-02-03T21:19:00.243Z,7.10
2023-02-03T21:21:40.238Z,7.20
2023-02-03T21:24:24.186Z,7.30
2023-02-03T21:26:51.934Z,7.60
2023-02-03T21:29:32.024Z,7.60
2023-02-03T21:32:00.798Z,7.60
2023-02-03T21:34:33.876Z,7.70
2023-02-03T21:37:27.566Z,7.80
2023-02-03T21:39:55.822Z,7.80
2023-02-03T21:42:43.334Z,7.90
2023-02-03T21:45:19.884Z,7.80
2023-02-03T21:47:52.192Z,7.90
2023-02-03T21:50:36.184Z,7.80
2023-02-03T21:53:10.148Z,8.00
2023-02-03T21:55:40.456Z,8.00
2023-02-03T21:58:30.820Z,8.00
2023-02-03T22:01:00.716Z,8.10
2023-02-03T22:03:35.506Z,8.10
2023-02-03T22:06:08.821Z,8.20
2023-02-03T22:08:51.088Z,8.30
2023-02-03T22:11:20.409Z,8.40
2023-02-03T22:13:48.333Z,8.40
2023-02-03T22:16:17.320Z,8.40
2023-02-03T22:18:46.609Z,8.50
2023-02-03T22:21:15.342Z,8.50
2023-02-03T22:23:43.944Z,8.50
2023-02-03T22:26:12.925Z,8.60
2023-02-03T22:28:41.116Z,8.60
2023-02-03T22:31:11.514Z,8.70
2023-02-03T22:33:40.220Z,8.70
2023-02-03T22:36:08.257Z,8.70
2023-02-03T22:38:36.970Z,8.60
2023-02-03T22:41:04.625Z,8.70
2023-02-03T22:43:32.888Z,8.70
2023-02-03T22:46:01.869Z,8.60
2023-02-03T22:48:29.570Z,8.60
2023-02-03T22:50:58.372Z,8.50
2023-02-03T22:53:26.444Z,8.40
2023-02-03T22:55:54.174Z,8.50
2023-02-03T22:58:24.143Z,8.50
2023-02-03T23:00:51.615Z,8.50
2023-02-03T23:03:19.183Z,8.50
2023-02-03T23:05:46.629Z,8.50
2023-02-03T23:08:14.081Z,8.50
2023-02-03T23:10:42.145Z,8.40
2023-02-03T23:13:09.595Z,8.40
2023-02-03T23:15:37.707Z,8.40
2023-02-03T23:18:05.242Z,8.40
2023-02-03T23:20:33.282Z,8.40
2023-02-03T23:23:00.917Z,8.50
2023-02-03T23:25:28.370Z,8.40
2023-02-03T23:27:55.883Z,8.40
2023-02-03T23:30:23.395Z,8.40
2023-02-03T23:32:51.865Z,8.50
2023-02-03T23:35:37.900Z,8.50
2023-02-03T23:38:05.385Z,8.50
2023-02-03T23:40:33.189Z,8.50
2023-02-03T23:43:00.818Z,8.40
2023-02-03T23:45:28.283Z,8.40
2023-02-03T23:47:55.820Z,8.40
2023-02-03T23:50:23.858Z,8.40
2023-02-03T23:52:51.352Z,8.40
2023-02-03T23:55:20.955Z,8.40
2023-02-03T23:57:48.456Z,8.40
